Team 5250 - Kinetic (2015)



2015 Sponsors: NASA / SolidWorks Corporation / Ekocycle / Brin Wojcicki Foundation / M&M Machining and Welding & CAPITAL CHRISTIAN SCHOOL


This tab displays only official event's that Team 5250 attended in 2015.

Sacramento Regional

  March 18 to March 21, 2015

Qualification Matches
Rank: 44 of 55
Record: 0 Wins, 0 Losses and 0 Ties - 10 Matches Played (0 Disqualifications)

Match Start Time Red 1 Red 2 Red 3 Blue 1 Blue 2 Blue 3 Red Final Blue Final
Qualification 7 Fri 3/20 - 9:43 AM 4973 3257 701 118 4543 5250 84 134
Qualification 16 Fri 3/20 - 11:06 AM 2473 5250 3615 118 4669 971 36 161
Qualification 21 Fri 3/20 - 11:44 AM 2473 100 1422 5250 3669 568 22 25
Qualification 36 Fri 3/20 - 2:32 PM 3013 3250 1671 253 5250 1280 170 96
Qualification 44 Fri 3/20 - 3:53 PM 4159 114 4904 3598 5250 971 13 44
Qualification 50 Fri 3/20 - 4:49 PM 4990 5250 4159 2204 5430 1678 2 130
Qualification 60 Fri 3/20 - 6:05 PM 4135 5507 2551 2144 5250 3013 62 0
Qualification 70 Sat 3/21 - 9:31 AM 5250 692 3189 2073 3045 4498 20 52
Qualification 82 Sat 3/21 - 11:00 AM 2035 114 5250 668 253 2141 14 26
Qualification 87 Sat 3/21 - 11:35 AM 3256 5250 2141 3598 5496 766 60 62
Playoff Matches

Team 5250's 2015 Awards

Loading match videos… please wait a moment

Loading...

Sacramento Regional

  March 18 to March 21, 2015

Qualification Matches
Rank: 44 of 55
Record: 0 Wins, 0 Losses and 0 Ties - 10 Matches Played (0 Disqualifications)

Match Start Time Red 1 Red 2 Red 3 Blue 1 Blue 2 Blue 3 Red Final Blue Final
Qualification 7 Fri 3/20 - 9:43 AM 4973 3257 701 118 4543 5250 84 134
Qualification 16 Fri 3/20 - 11:06 AM 2473 5250 3615 118 4669 971 36 161
Qualification 21 Fri 3/20 - 11:44 AM 2473 100 1422 5250 3669 568 22 25
Qualification 36 Fri 3/20 - 2:32 PM 3013 3250 1671 253 5250 1280 170 96
Qualification 44 Fri 3/20 - 3:53 PM 4159 114 4904 3598 5250 971 13 44
Qualification 50 Fri 3/20 - 4:49 PM 4990 5250 4159 2204 5430 1678 2 130
Qualification 60 Fri 3/20 - 6:05 PM 4135 5507 2551 2144 5250 3013 62 0
Qualification 70 Sat 3/21 - 9:31 AM 5250 692 3189 2073 3045 4498 20 52
Qualification 82 Sat 3/21 - 11:00 AM 2035 114 5250 668 253 2141 14 26
Qualification 87 Sat 3/21 - 11:35 AM 3256 5250 2141 3598 5496 766 60 62
Playoff Matches